Terminal Aerodrome Forecast
Issued by NWS

Home | Current Version | Previous Version | Text Only | Print | Product List | Glossary On
Versions: 1 2 3 4 5 6 7 8 9 10 11 12 13 14 15
000
FTUS43 KILX 312300
TAFDEC
TAF
KDEC 312325Z 0100/0124 35013G23KT P6SM SCT040
     FM010600 34014KT P6SM SCT035
     FM011500 02012KT P6SM SKC=

USA.gov is the U.S. government's official web portal to all federal, state and local government web resources and services.